createdAt,value
2018-11-04T00:01:11.533Z,19.17
2018-11-04T00:03:39.167Z,19.29
2018-11-04T00:06:06.108Z,19.45
2018-11-04T00:08:34.384Z,19.50
2018-11-04T00:11:01.079Z,19.49
2018-11-04T00:13:28.310Z,19.46
2018-11-04T00:15:58.574Z,19.21
2018-11-04T00:18:26.353Z,19.28
2018-11-04T00:20:55.213Z,19.45
2018-11-04T00:23:24.131Z,19.44
2018-11-04T00:25:51.231Z,19.48
2018-11-04T00:28:19.895Z,19.17
2018-11-04T00:30:50.918Z,19.06
2018-11-04T00:33:17.822Z,18.90
2018-11-04T00:35:49.876Z,18.88
2018-11-04T00:38:19.307Z,18.86
2018-11-04T00:40:46.284Z,19.09
2018-11-04T00:43:15.986Z,19.28
2018-11-04T00:45:43.322Z,19.29
2018-11-04T00:48:10.139Z,19.37
2018-11-04T00:50:37.979Z,19.47
2018-11-04T00:53:07.852Z,19.41
2018-11-04T00:55:36.769Z,19.37
2018-11-04T00:58:04.215Z,19.58
2018-11-04T01:03:09.729Z,19.37
2018-11-04T01:05:37.465Z,19.28
2018-11-04T01:08:06.354Z,19.59
2018-11-04T01:10:33.019Z,19.91
2018-11-04T01:13:01.196Z,19.79
2018-11-04T01:15:29.324Z,19.66
2018-11-04T01:17:58.209Z,19.40
2018-11-04T01:20:25.696Z,19.39
2018-11-04T01:22:52.987Z,19.35
2018-11-04T01:25:20.757Z,19.33
2018-11-04T01:27:48.944Z,19.28
2018-11-04T01:30:16.563Z,19.39
2018-11-04T01:35:17.342Z,19.79
2018-11-04T01:43:00.545Z,19.37
2018-11-04T01:45:27.117Z,19.44
2018-11-04T01:47:53.783Z,19.50
2018-11-04T01:50:20.316Z,19.41
2018-11-04T01:52:46.793Z,19.33
2018-11-04T01:55:13.383Z,19.22
2018-11-04T01:57:40.431Z,19.04
2018-11-04T02:00:06.996Z,19.12
2018-11-04T02:02:33.449Z,19.30
2018-11-04T02:05:00.658Z,19.34
2018-11-04T02:07:27.156Z,19.35
2018-11-04T02:09:53.909Z,19.37
2018-11-04T02:12:21.339Z,19.33
2018-11-04T02:14:47.790Z,19.33
2018-11-04T02:17:14.663Z,19.33
2018-11-04T02:19:41.167Z,19.69
2018-11-04T02:22:07.650Z,19.51
2018-11-04T02:24:34.225Z,19.41
2018-11-04T02:27:01.137Z,19.38
2018-11-04T02:29:27.602Z,19.39
2018-11-04T02:31:54.759Z,19.61
2018-11-04T02:34:22.657Z,19.85
2018-11-04T02:36:50.130Z,19.65
2018-11-04T02:39:16.685Z,19.46
2018-11-04T02:41:43.562Z,19.32
2018-11-04T02:44:11.673Z,19.47
2018-11-04T02:46:38.306Z,19.52
2018-11-04T02:49:04.929Z,19.48
2018-11-04T02:51:32.452Z,19.44
2018-11-04T02:53:59.090Z,19.38
2018-11-04T02:58:58.405Z,19.32
2018-11-04T03:01:24.919Z,19.18
2018-11-04T03:03:51.467Z,19.32
2018-11-04T03:06:18.635Z,19.28
2018-11-04T03:08:45.549Z,19.30
2018-11-04T03:11:12.176Z,19.28
2018-11-04T03:13:38.713Z,19.53
2018-11-04T03:16:06.032Z,19.55
2018-11-04T03:18:33.289Z,19.45
2018-11-04T03:21:00.979Z,19.41
2018-11-04T03:23:27.487Z,19.42
2018-11-04T03:25:54.715Z,19.43
2018-11-04T03:28:21.917Z,19.32
2018-11-04T03:30:48.563Z,19.19
2018-11-04T03:33:15.299Z,19.13
2018-11-04T03:35:42.372Z,19.06
2018-11-04T03:38:10.249Z,18.94
2018-11-04T03:40:36.813Z,19.07
2018-11-04T03:43:05.070Z,19.22
2018-11-04T03:45:31.524Z,19.30
2018-11-04T03:47:58.145Z,19.21
2018-11-04T03:50:24.786Z,19.30
2018-11-04T03:52:52.050Z,19.26
2018-11-04T03:55:19.045Z,19.25
2018-11-04T03:57:46.533Z,19.63
2018-11-04T04:00:14.616Z,19.52
2018-11-04T04:02:42.726Z,19.35
2018-11-04T04:05:09.232Z,19.26
2018-11-04T04:07:36.128Z,19.58
2018-11-04T04:10:02.594Z,19.48
2018-11-04T04:12:29.339Z,19.32
2018-11-04T04:14:56.097Z,19.36
2018-11-04T04:17:23.463Z,19.39
2018-11-04T04:19:50.040Z,19.41
2018-11-04T04:22:16.820Z,19.47
2018-11-04T04:24:43.421Z,19.52
2018-11-04T04:27:10.684Z,19.43
2018-11-04T04:29:38.859Z,19.34
2018-11-04T04:32:06.147Z,19.27
2018-11-04T04:34:33.304Z,19.20
2018-11-04T04:36:59.792Z,19.16
2018-11-04T04:39:26.794Z,19.18
2018-11-04T04:41:53.974Z,19.26
2018-11-04T04:44:21.939Z,19.31
2018-11-04T04:46:49.320Z,19.34
2018-11-04T04:49:15.884Z,19.35
2018-11-04T04:51:42.589Z,19.37
2018-11-04T04:54:09.338Z,19.41
2018-11-04T04:56:36.244Z,19.40
2018-11-04T04:59:03.405Z,19.39
2018-11-04T05:01:30.698Z,19.31
2018-11-04T05:03:57.856Z,19.22
2018-11-04T05:06:24.386Z,19.35
2018-11-04T05:08:51.116Z,19.57
2018-11-04T05:11:17.605Z,19.42
2018-11-04T05:13:44.166Z,19.51
2018-11-04T05:16:10.716Z,19.41
2018-11-04T05:18:37.851Z,19.29
2018-11-04T05:21:04.592Z,19.56
2018-11-04T05:23:31.432Z,19.59
2018-11-04T05:25:58.572Z,19.61
2018-11-04T05:28:25.249Z,19.56
2018-11-04T05:30:55.555Z,19.51
2018-11-04T05:33:22.106Z,19.41
2018-11-04T05:35:49.605Z,19.40
2018-11-04T05:38:16.803Z,19.75
2018-11-04T05:40:43.481Z,19.71
2018-11-04T05:43:10.000Z,19.80
2018-11-04T05:45:39.801Z,19.70
2018-11-04T05:48:06.805Z,19.53
2018-11-04T05:50:33.929Z,19.53
2018-11-04T05:53:04.877Z,19.59
2018-11-04T05:55:31.400Z,19.56
2018-11-04T05:57:59.097Z,19.45
2018-11-04T06:00:25.568Z,19.33
2018-11-04T06:02:52.841Z,19.23
2018-11-04T06:05:19.455Z,19.20
2018-11-04T06:07:45.968Z,19.19
2018-11-04T06:10:14.637Z,19.26
2018-11-04T06:12:41.840Z,19.28
2018-11-04T06:15:08.401Z,19.23
2018-11-04T06:17:34.987Z,19.16
2018-11-04T06:20:01.477Z,19.26
2018-11-04T06:22:29.396Z,19.34
2018-11-04T06:24:55.903Z,19.36
2018-11-04T06:27:23.402Z,19.51
2018-11-04T06:29:50.128Z,19.68
2018-11-04T06:32:18.108Z,19.73
2018-11-04T06:34:44.968Z,19.48
2018-11-04T06:37:11.778Z,19.37
2018-11-04T06:39:38.288Z,19.44
2018-11-04T06:42:04.951Z,19.54
2018-11-04T06:44:31.813Z,19.51
2018-11-04T06:46:58.492Z,19.46
2018-11-04T06:49:25.224Z,19.43
2018-11-04T06:51:51.802Z,19.50
2018-11-04T06:54:18.551Z,19.54
2018-11-04T06:56:45.121Z,19.49
2018-11-04T06:59:12.392Z,19.52
2018-11-04T07:01:39.907Z,19.56
2018-11-04T07:04:07.277Z,19.58
2018-11-04T07:06:34.495Z,19.74
2018-11-04T07:09:01.078Z,19.63
2018-11-04T07:11:28.585Z,19.86
2018-11-04T07:13:55.532Z,19.95
2018-11-04T07:16:24.390Z,19.79
2018-11-04T07:18:51.430Z,19.70
2018-11-04T07:21:18.706Z,19.73
2018-11-04T07:23:45.897Z,19.59
2018-11-04T07:26:13.254Z,19.69
2018-11-04T07:28:39.788Z,19.64
2018-11-04T07:31:07.283Z,19.76
2018-11-04T07:33:34.677Z,19.76
2018-11-04T07:36:01.980Z,19.74
2018-11-04T07:38:29.723Z,19.70
2018-11-04T07:40:56.974Z,19.67
2018-11-04T07:43:23.519Z,19.92
2018-11-04T07:45:50.292Z,19.72
2018-11-04T07:48:18.411Z,19.49
2018-11-04T07:50:45.764Z,19.70
2018-11-04T07:53:12.400Z,20.07
2018-11-04T07:55:39.191Z,19.96
2018-11-04T07:58:05.868Z,19.79
2018-11-04T08:00:33.351Z,19.79
2018-11-04T08:03:00.003Z,19.67
2018-11-04T08:05:26.625Z,19.61
2018-11-04T08:07:53.130Z,19.91
2018-11-04T08:10:20.180Z,20.09
2018-11-04T08:12:47.272Z,20.49
2018-11-04T08:15:15.175Z,20.68
2018-11-04T08:17:42.214Z,20.36
2018-11-04T08:20:09.601Z,20.34
2018-11-04T08:22:36.781Z,20.32
2018-11-04T08:25:03.507Z,20.41
2018-11-04T08:27:29.982Z,20.30
2018-11-04T08:29:56.895Z,20.32
2018-11-04T08:32:23.663Z,20.44
2018-11-04T08:34:53.966Z,20.48
2018-11-04T08:37:21.118Z,20.48
2018-11-04T08:39:47.697Z,20.36
2018-11-04T08:42:15.091Z,20.26
2018-11-04T08:44:42.697Z,20.48
2018-11-04T08:47:09.700Z,20.37
2018-11-04T08:49:36.187Z,20.47
2018-11-04T08:52:03.310Z,20.24
2018-11-04T08:54:30.409Z,20.27
2018-11-04T08:56:57.874Z,20.47
2018-11-04T08:59:24.322Z,20.39
2018-11-04T09:01:51.552Z,20.51
2018-11-04T09:04:18.293Z,20.57
2018-11-04T09:06:45.371Z,20.68
2018-11-04T09:09:13.335Z,20.45
2018-11-04T09:11:40.062Z,20.31
2018-11-04T09:14:06.815Z,20.15
2018-11-04T09:16:33.416Z,19.81
2018-11-04T09:19:00.077Z,19.89
2018-11-04T09:21:26.781Z,20.16
2018-11-04T09:23:53.527Z,20.12
2018-11-04T09:26:21.215Z,19.79
2018-11-04T09:28:47.762Z,19.88
2018-11-04T09:31:15.077Z,20.03
2018-11-04T09:33:41.667Z,20.07
2018-11-04T09:36:09.814Z,20.09
2018-11-04T09:38:36.459Z,20.07
2018-11-04T09:41:03.732Z,19.83
2018-11-04T09:43:30.234Z,20.14
2018-11-04T09:45:57.018Z,20.17
2018-11-04T09:48:23.551Z,19.94
2018-11-04T09:50:50.132Z,20.07
2018-11-04T09:53:17.558Z,19.81
2018-11-04T09:55:44.638Z,20.28
2018-11-04T09:58:11.788Z,20.24
2018-11-04T10:00:38.806Z,20.44
2018-11-04T10:03:05.508Z,20.66
2018-11-04T10:08:05.243Z,20.77
2018-11-04T10:10:32.381Z,20.63
2018-11-04T10:12:59.537Z,20.38
2018-11-04T10:15:31.784Z,20.51
2018-11-04T10:17:58.315Z,20.20
2018-11-04T10:20:26.232Z,20.10
2018-11-04T10:22:52.587Z,20.16
2018-11-04T10:25:19.117Z,20.22
2018-11-04T10:27:46.263Z,20.04
2018-11-04T10:30:15.199Z,20.29
2018-11-04T10:32:42.169Z,20.21
2018-11-04T10:35:08.680Z,20.25
2018-11-04T10:37:35.204Z,20.06
2018-11-04T10:40:01.871Z,20.37
2018-11-04T10:42:28.622Z,20.67
2018-11-04T10:44:55.199Z,20.77
2018-11-04T10:47:22.937Z,20.46
2018-11-04T10:49:50.137Z,20.45
2018-11-04T10:52:18.196Z,20.65
2018-11-04T10:54:45.373Z,20.52
2018-11-04T10:57:12.621Z,20.48
2018-11-04T10:59:39.821Z,20.29
2018-11-04T11:02:06.552Z,20.43
2018-11-04T11:04:35.265Z,20.61
2018-11-04T11:07:02.345Z,20.62
2018-11-04T11:09:29.629Z,20.55
2018-11-04T11:11:56.240Z,20.56
2018-11-04T11:14:22.714Z,20.24
2018-11-04T11:16:49.830Z,20.38
2018-11-04T11:19:17.721Z,20.30
2018-11-04T11:21:44.993Z,20.45
2018-11-04T11:24:11.751Z,20.34
2018-11-04T11:26:38.490Z,20.37
2018-11-04T11:29:06.297Z,20.38
2018-11-04T11:31:33.662Z,20.17
2018-11-04T11:34:01.299Z,20.31
2018-11-04T11:36:30.333Z,20.20
2018-11-04T11:41:29.211Z,20.47
2018-11-04T11:43:56.269Z,20.49
2018-11-04T11:48:54.918Z,20.85
2018-11-04T11:51:21.596Z,20.78
2018-11-04T11:53:48.259Z,20.98
2018-11-04T11:58:47.345Z,20.88
2018-11-04T12:01:13.921Z,20.69
2018-11-04T12:03:41.084Z,20.56
2018-11-04T12:06:08.220Z,20.30
2018-11-04T12:08:35.266Z,20.45
2018-11-04T12:11:02.437Z,20.66
2018-11-04T12:13:29.112Z,20.76
2018-11-04T12:15:55.562Z,21.00
2018-11-04T12:18:22.230Z,21.41
2018-11-04T12:20:49.057Z,21.33
2018-11-04T12:23:15.794Z,21.29
2018-11-04T12:25:43.158Z,21.08
2018-11-04T12:28:10.436Z,21.56
2018-11-04T12:30:37.753Z,21.65
2018-11-04T12:33:04.894Z,22.02
2018-11-04T12:35:31.448Z,21.77
2018-11-04T12:37:58.457Z,21.75
2018-11-04T12:40:25.081Z,21.47
2018-11-04T12:42:51.827Z,21.09
2018-11-04T12:45:18.322Z,21.51
2018-11-04T12:47:45.512Z,21.25
2018-11-04T12:50:13.039Z,21.42
2018-11-04T12:52:40.562Z,21.27
2018-11-04T12:55:07.981Z,21.42
2018-11-04T12:57:34.617Z,21.21
2018-11-04T13:00:01.904Z,21.16
2018-11-04T13:02:28.414Z,21.14
2018-11-04T13:04:55.738Z,21.17
2018-11-04T13:07:22.390Z,21.23
2018-11-04T13:09:49.871Z,21.14
2018-11-04T13:12:16.474Z,21.02
2018-11-04T13:14:43.893Z,21.17
2018-11-04T13:19:45.228Z,22.02
2018-11-04T13:22:11.928Z,22.03
2018-11-04T13:24:39.903Z,21.61
2018-11-04T13:27:08.373Z,21.85
2018-11-04T13:29:35.923Z,21.61
2018-11-04T13:32:04.691Z,21.62
2018-11-04T13:34:32.127Z,21.81
2018-11-04T13:36:58.853Z,21.83
2018-11-04T13:39:25.604Z,21.70
2018-11-04T13:41:52.160Z,21.28
2018-11-04T13:44:19.202Z,21.50
2018-11-04T13:46:47.135Z,21.36
2018-11-04T13:49:14.511Z,21.18
2018-11-04T13:51:42.422Z,21.23
2018-11-04T13:54:10.143Z,21.48
2018-11-04T13:56:36.660Z,21.84
2018-11-04T13:59:04.476Z,21.71
2018-11-04T14:01:30.968Z,21.44
2018-11-04T14:03:57.465Z,21.27
2018-11-04T14:06:24.523Z,21.06
2018-11-04T14:08:51.027Z,21.20
2018-11-04T14:11:19.982Z,21.12
2018-11-04T14:13:50.362Z,20.99
2018-11-04T14:16:16.820Z,21.22
2018-11-04T14:18:43.451Z,20.99
2018-11-04T14:21:10.020Z,21.04
2018-11-04T14:23:36.533Z,21.13
2018-11-04T14:26:03.963Z,21.24
2018-11-04T14:28:30.988Z,21.29
2018-11-04T14:30:57.894Z,21.16
2018-11-04T14:33:24.893Z,21.03
2018-11-04T14:35:51.436Z,21.00
2018-11-04T14:38:19.402Z,21.16
2018-11-04T14:40:46.845Z,21.12
2018-11-04T14:43:13.362Z,21.12
2018-11-04T14:45:42.359Z,20.84
2018-11-04T14:48:15.043Z,20.65
2018-11-04T14:50:42.631Z,20.78
2018-11-04T14:53:11.055Z,20.91
2018-11-04T14:55:41.608Z,20.96
2018-11-04T14:58:10.758Z,20.95
2018-11-04T15:00:41.974Z,20.99
2018-11-04T15:03:09.685Z,21.18
2018-11-04T15:08:14.259Z,20.90
2018-11-04T15:10:43.577Z,21.20
2018-11-04T15:13:12.243Z,21.02
2018-11-04T15:15:40.809Z,20.97
2018-11-04T15:20:49.093Z,20.64
2018-11-04T15:23:20.081Z,20.68
2018-11-04T15:25:49.969Z,20.91
2018-11-04T15:28:18.735Z,20.75
2018-11-04T15:30:48.079Z,20.84
2018-11-04T15:33:16.270Z,20.70
2018-11-04T15:35:46.174Z,20.79
2018-11-04T15:40:50.466Z,20.85
2018-11-04T15:43:17.716Z,20.64
2018-11-04T15:45:46.578Z,20.46
2018-11-04T15:48:14.507Z,20.44
2018-11-04T15:50:46.113Z,20.51
2018-11-04T15:53:13.023Z,20.58
2018-11-04T15:55:40.443Z,20.55
2018-11-04T15:58:06.992Z,20.52
2018-11-04T16:00:33.650Z,20.23
2018-11-04T16:03:00.671Z,20.31
2018-11-04T16:05:28.442Z,20.32
2018-11-04T16:07:55.519Z,20.29
2018-11-04T16:10:23.774Z,20.44
2018-11-04T16:12:51.001Z,20.11
2018-11-04T16:15:17.489Z,19.89
2018-11-04T16:17:45.335Z,20.26
2018-11-04T16:20:12.144Z,20.12
2018-11-04T16:22:38.819Z,20.22
2018-11-04T16:25:05.827Z,20.43
2018-11-04T16:27:33.109Z,20.06
2018-11-04T16:29:59.780Z,19.91
2018-11-04T16:32:27.808Z,19.88
2018-11-04T16:34:55.421Z,19.99
2018-11-04T16:37:22.589Z,20.09
2018-11-04T16:39:50.256Z,20.36
2018-11-04T16:42:16.849Z,20.37
2018-11-04T16:44:43.768Z,20.18
2018-11-04T16:47:10.272Z,20.21
2018-11-04T16:52:12.457Z,20.22
2018-11-04T16:54:39.926Z,20.12
2018-11-04T16:57:07.442Z,20.04
2018-11-04T16:59:34.184Z,19.94
2018-11-04T17:02:01.778Z,19.89
2018-11-04T17:04:29.420Z,19.99
2018-11-04T17:06:56.078Z,19.91
2018-11-04T17:09:26.394Z,19.82
2018-11-04T17:11:54.233Z,20.00
2018-11-04T17:14:20.912Z,20.09
2018-11-04T17:16:49.392Z,20.11
2018-11-04T17:19:16.958Z,20.05
2018-11-04T17:21:45.728Z,19.90
2018-11-04T17:24:12.481Z,19.89
2018-11-04T17:26:39.105Z,19.84
2018-11-04T17:31:38.722Z,19.98
2018-11-04T17:34:05.569Z,20.12
2018-11-04T17:36:32.266Z,19.95
2018-11-04T17:39:00.622Z,20.08
2018-11-04T17:41:29.211Z,19.81
2018-11-04T17:43:57.325Z,19.95
2018-11-04T17:46:24.998Z,19.78
2018-11-04T17:48:52.256Z,19.61
2018-11-04T17:51:19.475Z,19.93
2018-11-04T17:53:46.094Z,19.81
2018-11-04T17:56:13.354Z,19.64
2018-11-04T17:58:41.407Z,19.58
2018-11-04T18:01:08.570Z,19.78
2018-11-04T18:03:36.139Z,19.62
2018-11-04T18:06:03.496Z,19.51
2018-11-04T18:08:31.302Z,19.75
2018-11-04T18:10:59.576Z,19.70
2018-11-04T18:13:26.376Z,19.58
2018-11-04T18:15:54.141Z,19.53
2018-11-04T18:18:20.789Z,19.74
2018-11-04T18:20:48.079Z,19.60
2018-11-04T18:23:15.034Z,19.69
2018-11-04T18:25:42.499Z,19.45
2018-11-04T18:28:09.015Z,19.47
2018-11-04T18:30:36.026Z,19.70
2018-11-04T18:33:03.570Z,19.58
2018-11-04T18:35:30.967Z,19.47
2018-11-04T18:37:57.644Z,19.47
2018-11-04T18:40:24.847Z,19.53
2018-11-04T18:42:52.219Z,19.55
2018-11-04T18:45:19.758Z,19.48
2018-11-04T18:47:47.070Z,19.56
2018-11-04T18:50:16.567Z,19.56
2018-11-04T18:52:44.634Z,19.42
2018-11-04T18:55:12.366Z,19.30
2018-11-04T18:57:39.683Z,19.29
2018-11-04T19:00:07.742Z,19.26
2018-11-04T19:02:35.093Z,19.27
2018-11-04T19:05:04.203Z,19.46
2018-11-04T19:07:30.976Z,19.32
2018-11-04T19:09:59.267Z,19.36
2018-11-04T19:12:25.893Z,19.37
2018-11-04T19:14:53.236Z,19.36
2018-11-04T19:17:20.249Z,19.30
2018-11-04T19:19:46.796Z,19.62
2018-11-04T19:22:14.441Z,19.44
2018-11-04T19:24:43.209Z,19.50
2018-11-04T19:27:09.788Z,19.44
2018-11-04T19:29:37.850Z,19.68
2018-11-04T19:32:05.040Z,19.44
2018-11-04T19:34:32.170Z,19.31
2018-11-04T19:36:59.442Z,19.28
2018-11-04T19:39:26.190Z,19.26
2018-11-04T19:41:53.427Z,19.15
2018-11-04T19:44:20.457Z,19.12
2018-11-04T19:46:47.799Z,19.20
2018-11-04T19:49:15.243Z,19.27
2018-11-04T19:51:42.113Z,19.17
2018-11-04T19:54:09.281Z,19.12
2018-11-04T19:56:35.899Z,19.13
2018-11-04T19:59:03.371Z,19.17
2018-11-04T20:01:30.763Z,19.27
2018-11-04T20:03:59.608Z,19.33
2018-11-04T20:06:27.420Z,19.40
2018-11-04T20:08:55.150Z,19.34
2018-11-04T20:11:22.033Z,19.25
2018-11-04T20:13:50.196Z,19.09
2018-11-04T20:16:17.482Z,19.12
2018-11-04T20:18:45.156Z,19.26
2018-11-04T20:23:45.932Z,19.37
2018-11-04T20:26:14.314Z,19.38
2018-11-04T20:28:41.657Z,19.27
2018-11-04T20:33:45.115Z,18.94
2018-11-04T20:36:14.000Z,18.94
2018-11-04T20:38:41.331Z,19.04
2018-11-04T20:41:08.525Z,19.10
2018-11-04T20:43:35.247Z,19.11
2018-11-04T20:46:04.580Z,19.10
2018-11-04T20:48:32.239Z,19.16
2018-11-04T20:51:00.303Z,19.08
2018-11-04T20:53:26.915Z,19.09
2018-11-04T20:55:54.361Z,19.12
2018-11-04T20:58:21.140Z,19.07
2018-11-04T21:00:48.933Z,19.08
2018-11-04T21:03:16.274Z,19.04
2018-11-04T21:05:43.652Z,18.91
2018-11-04T21:08:10.809Z,18.88
2018-11-04T21:10:37.489Z,19.04
2018-11-04T21:13:04.872Z,19.11
2018-11-04T21:15:31.561Z,19.05
2018-11-04T21:17:59.131Z,19.03
2018-11-04T21:20:25.622Z,19.16
2018-11-04T21:22:52.937Z,19.09
2018-11-04T21:25:20.826Z,19.13
2018-11-04T21:27:47.462Z,19.13
2018-11-04T21:30:15.126Z,19.22
2018-11-04T21:32:41.635Z,19.09
2018-11-04T21:35:08.817Z,19.01
2018-11-04T21:37:36.166Z,19.27
2018-11-04T21:40:03.851Z,19.06
2018-11-04T21:42:33.807Z,19.01
2018-11-04T21:45:01.469Z,19.12
2018-11-04T21:49:59.942Z,19.26
2018-11-04T21:52:26.786Z,19.17
2018-11-04T21:54:53.615Z,19.26
2018-11-04T21:57:21.018Z,19.29
2018-11-04T21:59:48.386Z,19.42
2018-11-04T22:02:17.914Z,19.56
2018-11-04T22:04:45.685Z,19.54
2018-11-04T22:07:12.846Z,19.40
2018-11-04T22:09:39.467Z,19.29
2018-11-04T22:12:06.056Z,19.18
2018-11-04T22:14:33.049Z,19.25
2018-11-04T22:17:01.195Z,19.24
2018-11-04T22:19:28.564Z,19.25
2018-11-04T22:21:55.199Z,19.27
2018-11-04T22:24:22.134Z,19.43
2018-11-04T22:26:49.990Z,19.32
2018-11-04T22:29:17.405Z,19.61
2018-11-04T22:31:44.955Z,19.52
2018-11-04T22:34:13.907Z,19.08
2018-11-04T22:36:40.866Z,19.09
2018-11-04T22:39:08.533Z,19.06
2018-11-04T22:41:35.666Z,19.08
2018-11-04T22:44:04.899Z,19.19
2018-11-04T22:46:31.435Z,19.50
2018-11-04T22:48:59.475Z,19.10
2018-11-04T22:51:26.403Z,19.09
2018-11-04T22:53:53.403Z,19.19
2018-11-04T22:56:20.248Z,19.56
2018-11-04T22:58:48.215Z,19.16
2018-11-04T23:01:16.387Z,19.09
2018-11-04T23:03:43.629Z,19.07
2018-11-04T23:06:10.351Z,19.09
2018-11-04T23:08:37.672Z,19.10
2018-11-04T23:11:04.903Z,19.16
2018-11-04T23:13:32.560Z,19.22
2018-11-04T23:15:59.323Z,19.33
2018-11-04T23:18:26.107Z,19.20
2018-11-04T23:23:26.380Z,19.21
2018-11-04T23:25:53.988Z,19.40
2018-11-04T23:28:21.253Z,19.23
2018-11-04T23:30:49.084Z,19.28
2018-11-04T23:33:17.000Z,19.21
2018-11-04T23:35:45.017Z,18.89
2018-11-04T23:38:11.645Z,18.77
2018-11-04T23:40:38.368Z,18.75
2018-11-04T23:43:05.920Z,19.07
2018-11-04T23:45:36.606Z,18.78
2018-11-04T23:48:03.977Z,18.60
2018-11-04T23:50:30.953Z,18.43
2018-11-04T23:52:58.327Z,18.54
2018-11-04T23:55:25.358Z,18.67
2018-11-04T23:57:54.110Z,18.52
